Time;durP1;ratioP1;P1;durP2;ratioP2;P2;SDS_P1;SDS_P2;PMS_P1;PMS_P2;Temp;Humidity;BMP_temperature;BMP_pressure;BME280_temperature;BME280_humidity;BME280_pressure;Samples;Min_cycle;Max_cycle;Signal;HPM_P1;HPM_P2
2021/11/23 00:20:20;;;;;;;1.70;1.58;;;;;;;;;;4211871;34;21113;-62
2021/11/23 00:22:46;;;;;;;2.12;1.65;;;;;;;;;;4218080;34;20125;-61
2021/11/23 00:25:13;;;;;;;2.12;1.67;;;;;;;;;;4203603;34;20584;-62
2021/11/23 00:27:39;;;;;;;1.70;1.60;;;;;;;;;;4204376;34;20214;-61
2021/11/23 00:30:05;;;;;;;3.62;2.20;;;;;;;;;;4203858;34;20106;-61
2021/11/23 00:32:33;;;;;;;1.90;1.60;;;;;;;;;;4204397;34;20172;-61
2021/11/23 00:34:59;;;;;;;3.97;2.30;;;;;;;;;;4204130;34;20114;-61
2021/11/23 00:37:25;;;;;;;1.62;1.50;;;;;;;;;;4204234;34;20218;-61
2021/11/23 00:39:51;;;;;;;1.60;1.50;;;;;;;;;;4204296;34;20132;-61
2021/11/23 00:42:17;;;;;;;2.00;1.80;;;;;;;;;;4203771;34;20124;-61
2021/11/23 00:44:43;;;;;;;1.77;1.67;;;;;;;;;;4204309;34;20679;-61
2021/11/23 00:47:09;;;;;;;1.67;1.58;;;;;;;;;;4214180;34;20129;-61
2021/11/23 00:49:35;;;;;;;1.60;1.50;;;;;;;;;;4204101;34;20122;-61
2021/11/23 00:52:02;;;;;;;1.58;1.48;;;;;;;;;;4203220;34;20449;-61
2021/11/23 00:54:28;;;;;;;1.85;1.42;;;;;;;;;;4203518;34;20128;-60
2021/11/23 00:56:54;;;;;;;1.70;1.60;;;;;;;;;;4203652;34;20113;-61
2021/11/23 00:59:20;;;;;;;1.83;1.70;;;;;;;;;;4204595;34;20104;-62
2021/11/23 01:01:46;;;;;;;1.90;1.75;;;;;;;;;;4203656;34;20090;-61
2021/11/23 01:04:12;;;;;;;2.37;1.90;;;;;;;;;;4203904;34;20129;-62
2021/11/23 01:06:38;;;;;;;2.28;1.60;;;;;;;;;;4203973;34;20116;-61
2021/11/23 01:09:04;;;;;;;2.58;1.70;;;;;;;;;;4204037;34;20104;-61
2021/11/23 01:11:30;;;;;;;1.85;1.70;;;;;;;;;;4203601;34;20137;-61
2021/11/23 01:13:58;;;;;;;2.03;1.80;;;;;;;;;;4202918;34;20614;-61
2021/11/23 01:16:24;;;;;;;1.70;1.60;;;;;;;;;;4203547;34;20189;-61
2021/11/23 01:18:50;;;;;;;1.70;1.60;;;;;;;;;;4203828;34;20110;-61
2021/11/23 01:21:16;;;;;;;1.60;1.50;;;;;;;;;;4203576;34;20190;-61
2021/11/23 01:23:43;;;;;;;2.12;1.50;;;;;;;;;;4203889;34;20109;-61
2021/11/23 01:26:09;;;;;;;2.15;1.40;;;;;;;;;;4203520;34;20106;-61
2021/11/23 01:28:36;;;;;;;2.00;1.60;;;;;;;;;;4203459;34;20459;-61
2021/11/23 01:31:02;;;;;;;1.50;1.40;;;;;;;;;;4203365;34;20532;-60
2021/11/23 01:33:28;;;;;;;1.95;1.80;;;;;;;;;;4204017;34;20098;-61
2021/11/23 01:35:55;;;;;;;1.77;1.52;;;;;;;;;;4192624;34;20138;-61
2021/11/23 01:38:21;;;;;;;1.98;1.55;;;;;;;;;;4205821;34;20146;-61
2021/11/23 01:40:47;;;;;;;1.70;1.52;;;;;;;;;;4205630;34;20101;-61
2021/11/23 01:43:13;;;;;;;2.15;1.37;;;;;;;;;;4205660;34;20193;-61
2021/11/23 01:45:40;;;;;;;2.08;1.60;;;;;;;;;;4205526;34;20087;-61
2021/11/23 01:48:07;;;;;;;1.77;1.55;;;;;;;;;;4205794;34;20090;-61
2021/11/23 01:50:34;;;;;;;3.15;1.42;;;;;;;;;;4205521;34;20110;-61
2021/11/23 01:53:04;;;;;;;3.85;1.75;;;;;;;;;;4203156;34;20197;-61
2021/11/23 01:55:33;;;;;;;1.60;1.50;;;;;;;;;;4205402;34;20525;-62
2021/11/23 01:58:00;;;;;;;1.40;1.30;;;;;;;;;;4205606;34;20157;-61
2021/11/23 02:00:26;;;;;;;3.42;2.10;;;;;;;;;;4205232;34;20197;-60
2021/11/23 02:02:52;;;;;;;2.47;1.80;;;;;;;;;;4205350;34;20217;-61
2021/11/23 02:05:18;;;;;;;2.08;1.85;;;;;;;;;;4205479;34;20209;-62
2021/11/23 02:07:44;;;;;;;3.85;1.98;;;;;;;;;;4205576;34;20101;-60
2021/11/23 02:10:11;;;;;;;2.70;1.95;;;;;;;;;;4205347;34;20124;-61
2021/11/23 02:12:38;;;;;;;1.62;1.52;;;;;;;;;;4205424;34;20094;-61
2021/11/23 02:15:06;;;;;;;1.80;1.50;;;;;;;;;;4205420;34;20103;-61
2021/11/23 02:17:32;;;;;;;2.03;1.83;;;;;;;;;;4205431;34;20129;-71
2021/11/23 02:19:59;;;;;;;2.47;1.50;;;;;;;;;;4203966;34;21029;-61
2021/11/23 02:22:25;;;;;;;2.03;1.70;;;;;;;;;;4204885;34;20090;-61
2021/11/23 02:24:51;;;;;;;6.07;1.92;;;;;;;;;;4205412;34;20090;-60
2021/11/23 02:27:17;;;;;;;7.95;2.92;;;;;;;;;;4204964;34;20102;-61
2021/11/23 02:29:43;;;;;;;2.25;2.05;;;;;;;;;;4205675;34;20544;-61
2021/11/23 02:32:09;;;;;;;3.72;2.10;;;;;;;;;;4204581;34;20113;-60
2021/11/23 02:34:36;;;;;;;3.15;1.90;;;;;;;;;;4192704;34;20206;-60
2021/11/23 02:37:02;;;;;;;3.70;2.10;;;;;;;;;;4205133;34;20465;-61
2021/11/23 02:39:28;;;;;;;3.05;1.85;;;;;;;;;;4205559;34;20129;-62
2021/11/23 02:41:54;;;;;;;3.40;1.98;;;;;;;;;;4203804;34;20109;-62
2021/11/23 02:44:21;;;;;;;3.12;1.70;;;;;;;;;;4205028;34;20141;-62
2021/11/23 02:46:47;;;;;;;2.55;2.10;;;;;;;;;;4191301;34;20159;-63
2021/11/23 02:49:14;;;;;;;2.37;1.85;;;;;;;;;;4205318;34;20110;-62
2021/11/23 02:51:40;;;;;;;4.12;2.20;;;;;;;;;;4203076;34;20185;-61
2021/11/23 02:54:08;;;;;;;2.95;2.20;;;;;;;;;;4202146;34;20121;-61
2021/11/23 02:56:35;;;;;;;2.03;1.83;;;;;;;;;;4202980;34;20601;-61
2021/11/23 02:59:01;;;;;;;3.22;2.00;;;;;;;;;;4202985;34;20122;-62
2021/11/23 03:01:27;;;;;;;4.12;1.87;;;;;;;;;;4203095;34;20621;-61
2021/11/23 03:03:57;;;;;;;4.70;2.30;;;;;;;;;;4203169;34;20431;-62
2021/11/23 03:06:23;;;;;;;5.07;2.72;;;;;;;;;;4204193;34;20118;-61
2021/11/23 03:08:50;;;;;;;5.75;2.65;;;;;;;;;;4205003;34;20126;-61
2021/11/23 03:11:18;;;;;;;6.20;3.95;;;;;;;;;;4190080;34;20114;-61
2021/11/23 03:13:45;;;;;;;6.40;3.37;;;;;;;;;;4202792;34;20121;-61
2021/11/23 03:16:11;;;;;;;6.97;3.05;;;;;;;;;;4202610;34;20117;-61
2021/11/23 03:18:37;;;;;;;4.80;2.75;;;;;;;;;;4202810;34;20114;-60
2021/11/23 03:21:04;;;;;;;10.95;3.90;;;;;;;;;;4188971;34;20545;-60
2021/11/23 03:23:30;;;;;;;4.35;2.30;;;;;;;;;;4201830;34;20458;-60
2021/11/23 03:25:56;;;;;;;8.00;3.20;;;;;;;;;;4203136;34;20105;-61
2021/11/23 03:28:22;;;;;;;6.68;2.53;;;;;;;;;;4204857;34;20152;-61
2021/11/23 03:30:50;;;;;;;6.45;3.28;;;;;;;;;;4203328;34;20104;-62
2021/11/23 03:33:16;;;;;;;3.30;2.60;;;;;;;;;;4204631;34;20124;-62
2021/11/23 03:35:43;;;;;;;9.35;3.03;;;;;;;;;;4204759;34;20241;-62
2021/11/23 03:38:12;;;;;;;5.05;3.10;;;;;;;;;;4204591;34;20161;-61
2021/11/23 03:40:40;;;;;;;13.45;3.12;;;;;;;;;;4204930;34;20490;-62
2021/11/23 03:43:08;;;;;;;11.50;3.40;;;;;;;;;;4204775;34;20502;-61
2021/11/23 03:45:34;;;;;;;8.95;2.75;;;;;;;;;;4204541;34;20106;-61
2021/11/23 03:48:00;;;;;;;8.57;2.72;;;;;;;;;;4204656;34;20091;-61
2021/11/23 03:50:28;;;;;;;9.05;2.90;;;;;;;;;;4204618;34;20213;-61
2021/11/23 03:52:55;;;;;;;10.07;3.20;;;;;;;;;;4203718;34;20113;-61
2021/11/23 03:55:22;;;;;;;3.90;2.28;;;;;;;;;;4204345;34;20090;-61
2021/11/23 03:57:50;;;;;;;5.28;2.50;;;;;;;;;;4204338;34;20550;-61
2021/11/23 04:00:18;;;;;;;5.50;2.35;;;;;;;;;;4204340;34;20212;-61
2021/11/23 04:02:45;;;;;;;9.88;3.37;;;;;;;;;;4204644;34;20212;-61
2021/11/23 04:05:11;;;;;;;4.62;3.28;;;;;;;;;;4204267;34;20121;-61
2021/11/23 04:07:40;;;;;;;8.70;3.42;;;;;;;;;;4204666;34;20533;-61
2021/11/23 04:10:11;;;;;;;5.93;3.30;;;;;;;;;;4203936;34;20094;-61
2021/11/23 04:12:37;;;;;;;12.13;3.50;;;;;;;;;;4204585;34;20196;-61
2021/11/23 04:15:04;;;;;;;9.00;3.00;;;;;;;;;;4191220;34;20125;-61
2021/11/23 04:17:32;;;;;;;7.18;3.47;;;;;;;;;;4204766;34;20102;-61
2021/11/23 04:19:58;;;;;;;5.43;3.05;;;;;;;;;;4191784;34;20134;-60
2021/11/23 04:22:24;;;;;;;3.35;2.83;;;;;;;;;;4204087;34;20546;-61
2021/11/23 04:24:50;;;;;;;8.70;4.25;;;;;;;;;;4204480;34;20552;-61
2021/11/23 04:27:16;;;;;;;9.93;3.80;;;;;;;;;;4204025;34;20116;-61
2021/11/23 04:29:42;;;;;;;8.00;3.10;;;;;;;;;;4204512;34;20209;-61
2021/11/23 04:32:08;;;;;;;7.20;3.20;;;;;;;;;;4204117;34;20106;-62
2021/11/23 04:34:37;;;;;;;6.35;2.90;;;;;;;;;;4204434;34;20134;-61
2021/11/23 04:37:04;;;;;;;4.82;2.47;;;;;;;;;;4202710;34;20108;-61
2021/11/23 04:39:30;;;;;;;4.30;2.55;;;;;;;;;;4204295;34;20117;-62
2021/11/23 04:41:56;;;;;;;5.90;2.78;;;;;;;;;;4203832;34;20135;-61
2021/11/23 04:44:22;;;;;;;4.62;3.00;;;;;;;;;;4204198;34;20130;-61
2021/11/23 04:46:48;;;;;;;3.40;2.45;;;;;;;;;;4204095;34;20225;-61
2021/11/23 04:49:14;;;;;;;2.95;2.20;;;;;;;;;;4204316;34;20132;-62
2021/11/23 04:51:41;;;;;;;4.65;2.75;;;;;;;;;;4203746;34;20094;-61
2021/11/23 04:54:07;;;;;;;7.18;2.75;;;;;;;;;;4203517;34;20179;-61
2021/11/23 04:56:33;;;;;;;5.65;2.87;;;;;;;;;;4203714;34;20198;-61
2021/11/23 04:59:00;;;;;;;8.95;3.40;;;;;;;;;;4204036;34;20180;-62
2021/11/23 05:01:26;;;;;;;6.25;3.10;;;;;;;;;;4204013;34;20113;-60
2021/11/23 05:03:55;;;;;;;3.70;2.80;;;;;;;;;;4204162;34;20125;-63
2021/11/23 05:06:21;;;;;;;6.97;2.83;;;;;;;;;;4191086;34;20121;-62
2021/11/23 05:08:47;;;;;;;6.07;2.92;;;;;;;;;;4203128;34;20616;-63
2021/11/23 05:11:13;;;;;;;6.18;2.70;;;;;;;;;;4203733;34;20567;-62
2021/11/23 05:13:40;;;;;;;5.07;3.10;;;;;;;;;;4203746;34;20204;-63
2021/11/23 05:16:07;;;;;;;5.25;3.22;;;;;;;;;;4203475;34;20446;-63
2021/11/23 05:18:33;;;;;;;4.75;2.97;;;;;;;;;;4203899;34;20113;-63
2021/11/23 05:21:00;;;;;;;3.40;2.60;;;;;;;;;;4203923;34;20117;-63
2021/11/23 05:23:26;;;;;;;3.35;2.60;;;;;;;;;;4203689;34;20133;-62
2021/11/23 05:25:54;;;;;;;3.62;2.70;;;;;;;;;;4190458;34;20561;-63
2021/11/23 05:28:20;;;;;;;5.70;2.75;;;;;;;;;;4203572;34;20140;-62
2021/11/23 05:30:47;;;;;;;7.18;3.08;;;;;;;;;;4203607;34;20110;-63
2021/11/23 05:33:13;;;;;;;4.90;2.72;;;;;;;;;;4204015;34;20106;-62
2021/11/23 05:35:39;;;;;;;7.43;3.05;;;;;;;;;;4203342;34;20198;-62
2021/11/23 05:38:05;;;;;;;6.78;3.12;;;;;;;;;;4203639;34;20137;-62
2021/11/23 05:40:31;;;;;;;8.52;3.12;;;;;;;;;;4203383;34;20134;-59
2021/11/23 05:42:57;;;;;;;4.28;2.78;;;;;;;;;;4203671;34;20106;-60
2021/11/23 05:45:23;;;;;;;3.35;2.20;;;;;;;;;;4202872;34;20124;-61
2021/11/23 05:47:50;;;;;;;4.80;2.40;;;;;;;;;;4203797;34;20132;-58
2021/11/23 05:50:16;;;;;;;6.87;3.50;;;;;;;;;;4203240;34;20188;-59
2021/11/23 05:52:42;;;;;;;11.50;3.92;;;;;;;;;;4202464;34;20199;-59
2021/11/23 05:55:08;;;;;;;9.18;4.40;;;;;;;;;;4203565;34;20141;-59
2021/11/23 05:57:34;;;;;;;10.40;3.53;;;;;;;;;;4203136;34;20121;-59
2021/11/23 06:00:00;;;;;;;9.05;3.75;;;;;;;;;;4203405;34;20192;-59
2021/11/23 06:02:26;;;;;;;5.50;3.45;;;;;;;;;;4203154;34;20141;-59
2021/11/23 06:04:52;;;;;;;6.87;3.05;;;;;;;;;;4203407;34;20110;-59
2021/11/23 06:07:19;;;;;;;5.32;2.62;;;;;;;;;;4202941;34;20477;-59
2021/11/23 06:09:45;;;;;;;10.20;3.08;;;;;;;;;;4190389;34;20118;-59
2021/11/23 06:12:11;;;;;;;11.43;3.60;;;;;;;;;;4203237;34;20130;-59
2021/11/23 06:14:39;;;;;;;5.57;3.20;;;;;;;;;;4203483;34;20209;-59
2021/11/23 06:17:07;;;;;;;5.30;3.37;;;;;;;;;;4202643;34;20189;-60
2021/11/23 06:19:33;;;;;;;12.02;3.30;;;;;;;;;;4203597;34;20106;-59
2021/11/23 06:22:00;;;;;;;6.87;3.22;;;;;;;;;;4205075;34;20209;-59
2021/11/23 06:24:26;;;;;;;4.97;2.83;;;;;;;;;;4205212;34;20120;-59
2021/11/23 06:26:52;;;;;;;15.90;3.30;;;;;;;;;;4204985;34;20118;-60
2021/11/23 06:29:18;;;;;;;11.45;3.28;;;;;;;;;;4205364;34;20121;-60
2021/11/23 06:31:45;;;;;;;10.43;3.42;;;;;;;;;;4205176;34;20177;-59
2021/11/23 06:34:12;;;;;;;8.65;2.90;;;;;;;;;;4205135;34;20101;-59
2021/11/23 06:36:38;;;;;;;12.52;3.37;;;;;;;;;;4205076;34;20096;-59
2021/11/23 06:39:05;;;;;;;7.57;3.50;;;;;;;;;;4205400;34;20502;-59
2021/11/23 06:41:31;;;;;;;13.45;3.10;;;;;;;;;;4205108;34;20197;-59
2021/11/23 06:44:02;;;;;;;4.85;2.95;;;;;;;;;;4205374;34;20107;-59
2021/11/23 06:46:29;;;;;;;6.50;2.83;;;;;;;;;;4205038;34;20108;-59
2021/11/23 06:48:57;;;;;;;6.22;2.12;;;;;;;;;;4192274;34;20201;-59
2021/11/23 06:51:23;;;;;;;5.47;2.20;;;;;;;;;;4204608;34;20100;-58
2021/11/23 06:53:49;;;;;;;2.20;1.98;;;;;;;;;;4204511;34;20115;-59
2021/11/23 06:56:15;;;;;;;3.87;2.20;;;;;;;;;;4204630;34;20172;-59
2021/11/23 06:58:42;;;;;;;3.75;2.50;;;;;;;;;;4205000;34;20550;-59
2021/11/23 07:01:08;;;;;;;3.65;2.45;;;;;;;;;;4192370;34;20212;-59
2021/11/23 07:03:34;;;;;;;5.20;2.55;;;;;;;;;;4205055;34;20121;-60
2021/11/23 07:06:00;;;;;;;6.00;3.12;;;;;;;;;;4204766;34;20493;-60
2021/11/23 07:08:26;;;;;;;5.45;2.62;;;;;;;;;;4204784;34;20105;-60
2021/11/23 07:10:53;;;;;;;6.32;2.50;;;;;;;;;;4204914;34;20129;-60
2021/11/23 07:13:20;;;;;;;4.40;2.30;;;;;;;;;;4204971;34;20618;-59
2021/11/23 07:15:47;;;;;;;4.10;2.60;;;;;;;;;;4205048;34;20109;-59
2021/11/23 07:18:14;;;;;;;4.55;2.12;;;;;;;;;;4204589;34;20633;-59
2021/11/23 07:20:41;;;;;;;3.22;2.15;;;;;;;;;;4204850;34;20097;-59
2021/11/23 07:23:07;;;;;;;15.90;2.97;;;;;;;;;;4204739;34;20102;-59
2021/11/23 07:25:34;;;;;;;4.15;2.15;;;;;;;;;;4204725;34;20118;-60
2021/11/23 07:28:00;;;;;;;4.57;2.10;;;;;;;;;;4204599;34;20539;-60
2021/11/23 07:30:26;;;;;;;2.85;1.80;;;;;;;;;;4204660;34;20188;-60
2021/11/23 07:32:52;;;;;;;3.08;2.17;;;;;;;;;;4204178;34;20526;-60
2021/11/23 07:35:20;;;;;;;4.53;1.87;;;;;;;;;;4204684;34;20141;-60
2021/11/23 07:37:47;;;;;;;4.05;2.00;;;;;;;;;;4204525;34;20098;-60
2021/11/23 07:40:13;;;;;;;3.53;2.03;;;;;;;;;;4204541;34;20127;-59
2021/11/23 07:42:40;;;;;;;5.62;2.12;;;;;;;;;;4204711;34;20498;-60
2021/11/23 07:45:07;;;;;;;11.30;2.95;;;;;;;;;;4204743;34;20125;-60
2021/11/23 07:47:33;;;;;;;5.22;2.15;;;;;;;;;;4204369;34;20137;-60
2021/11/23 07:49:59;;;;;;;7.05;2.50;;;;;;;;;;4191703;34;20534;-60
2021/11/23 07:52:25;;;;;;;5.90;2.60;;;;;;;;;;4202165;34;20193;-61
2021/11/23 07:54:51;;;;;;;7.15;2.45;;;;;;;;;;4204099;34;20529;-60
2021/11/23 07:57:17;;;;;;;5.65;2.87;;;;;;;;;;4204236;34;20113;-60
2021/11/23 07:59:44;;;;;;;3.85;2.40;;;;;;;;;;4204654;34;20118;-60
2021/11/23 08:02:10;;;;;;;4.22;1.95;;;;;;;;;;4204267;34;20178;-59
2021/11/23 08:04:36;;;;;;;3.97;2.20;;;;;;;;;;4191830;34;20135;-60
2021/11/23 08:07:02;;;;;;;3.20;2.15;;;;;;;;;;4202837;34;20141;-60
2021/11/23 08:09:28;;;;;;;3.92;2.30;;;;;;;;;;4204432;34;20125;-59
2021/11/23 08:11:55;;;;;;;4.57;2.30;;;;;;;;;;4204362;34;20127;-60
2021/11/23 08:14:24;;;;;;;4.97;2.20;;;;;;;;;;4204536;34;20511;-60
2021/11/23 08:16:50;;;;;;;3.92;1.75;;;;;;;;;;4191127;34;20133;-60
2021/11/23 08:19:16;;;;;;;2.95;1.95;;;;;;;;;;4204167;34;20105;-59
2021/11/23 08:21:42;;;;;;;2.45;1.60;;;;;;;;;;4204176;34;20129;-60
2021/11/23 08:24:08;;;;;;;3.60;2.30;;;;;;;;;;4204275;34;20208;-60
2021/11/23 08:26:34;;;;;;;2.85;2.37;;;;;;;;;;4196574;34;20535;-60
2021/11/23 08:29:00;;;;;;;4.00;2.30;;;;;;;;;;4204180;34;20114;-61
2021/11/23 08:31:26;;;;;;;3.92;2.30;;;;;;;;;;4204284;34;20133;-60
2021/11/23 08:33:52;;;;;;;3.72;2.20;;;;;;;;;;4204155;34;20542;-60
2021/11/23 08:36:18;;;;;;;4.53;2.10;;;;;;;;;;4203992;34;20117;-61
2021/11/23 08:38:45;;;;;;;4.85;2.03;;;;;;;;;;4203968;34;20129;-60
2021/11/23 08:41:11;;;;;;;3.45;1.80;;;;;;;;;;4204012;34;20121;-60
2021/11/23 08:43:37;;;;;;;2.85;1.85;;;;;;;;;;4203350;34;20466;-60
2021/11/23 08:46:04;;;;;;;3.58;1.70;;;;;;;;;;4203918;34;20152;-61
2021/11/23 08:48:30;;;;;;;4.05;2.10;;;;;;;;;;4203960;34;20140;-59
2021/11/23 08:50:56;;;;;;;2.65;2.03;;;;;;;;;;4204038;34;20144;-60
2021/11/23 08:53:22;;;;;;;3.03;1.87;;;;;;;;;;4203208;34;20562;-60
2021/11/23 08:55:48;;;;;;;2.20;2.00;;;;;;;;;;4203921;34;20113;-60
2021/11/23 08:58:14;;;;;;;2.08;1.70;;;;;;;;;;4203607;34;20160;-60
2021/11/23 09:00:42;;;;;;;3.67;2.22;;;;;;;;;;4190848;34;20146;-60
2021/11/23 09:03:08;;;;;;;4.20;2.50;;;;;;;;;;4204054;34;20137;-60
2021/11/23 09:05:36;;;;;;;3.50;2.30;;;;;;;;;;4203864;34;20109;-60
2021/11/23 09:08:04;;;;;;;3.90;2.40;;;;;;;;;;4203942;34;20307;-60
2021/11/23 09:10:35;;;;;;;5.28;2.40;;;;;;;;;;4203634;34;20109;-60
2021/11/23 09:13:03;;;;;;;2.83;2.10;;;;;;;;;;4191268;34;20106;-61
2021/11/23 09:15:29;;;;;;;2.55;2.10;;;;;;;;;;4203639;34;20101;-60
2021/11/23 09:17:58;;;;;;;8.15;2.40;;;;;;;;;;4203856;34;20133;-60
2021/11/23 09:20:25;;;;;;;4.68;2.37;;;;;;;;;;4203450;34;20099;-60
2021/11/23 09:22:51;;;;;;;7.15;2.28;;;;;;;;;;4203846;34;20299;-60
2021/11/23 09:25:18;;;;;;;3.15;2.10;;;;;;;;;;4203818;34;20132;-60
2021/11/23 09:27:44;;;;;;;5.47;2.37;;;;;;;;;;4190696;34;20114;-61
2021/11/23 09:30:13;;;;;;;5.37;2.25;;;;;;;;;;4203389;34;20226;-61
2021/11/23 09:32:39;;;;;;;4.68;2.28;;;;;;;;;;4203433;34;20184;-61
2021/11/23 09:35:06;;;;;;;3.08;2.20;;;;;;;;;;4203753;34;20132;-60
2021/11/23 09:37:32;;;;;;;2.50;2.00;;;;;;;;;;4203490;34;20145;-61
2021/11/23 09:39:58;;;;;;;3.42;2.22;;;;;;;;;;4203516;34;20209;-61
2021/11/23 09:42:24;;;;;;;2.28;2.08;;;;;;;;;;4203433;34;20121;-60
2021/11/23 09:44:50;;;;;;;3.42;2.35;;;;;;;;;;4203712;34;20516;-62
2021/11/23 09:47:16;;;;;;;4.12;2.10;;;;;;;;;;4203277;34;20509;-62
2021/11/23 09:49:42;;;;;;;2.53;2.15;;;;;;;;;;4203302;34;20086;-61
2021/11/23 09:52:09;;;;;;;3.97;2.40;;;;;;;;;;4202832;34;20221;-60
2021/11/23 09:54:39;;;;;;;6.18;2.30;;;;;;;;;;4190826;34;20109;-61
2021/11/23 09:57:05;;;;;;;5.35;2.12;;;;;;;;;;4205527;34;20113;-61
2021/11/23 09:59:31;;;;;;;2.67;2.00;;;;;;;;;;4192774;34;20141;-61
2021/11/23 10:01:59;;;;;;;3.85;1.87;;;;;;;;;;4205457;34;20086;-61
2021/11/23 10:04:27;;;;;;;2.12;1.92;;;;;;;;;;4205289;34;20137;-61
2021/11/23 10:06:58;;;;;;;2.62;2.15;;;;;;;;;;4205375;34;20508;-61
2021/11/23 10:09:41;;;;;;;3.37;2.37;;;;;;;;;;4205353;34;20201;-61
2021/11/23 10:12:22;;;;;;;3.45;2.40;;;;;;;;;;4192312;34;20090;-61
2021/11/23 10:15:07;;;;;;;2.58;2.10;;;;;;;;;;4205640;34;20203;-61
2021/11/23 10:17:33;;;;;;;2.40;2.20;;;;;;;;;;4203971;34;20511;-61
2021/11/23 10:20:00;;;;;;;4.82;2.30;;;;;;;;;;4205052;34;20114;-58
2021/11/23 10:22:33;;;;;;;6.00;2.22;;;;;;;;;;4205038;34;20114;-60
2021/11/23 10:25:08;;;;;;;3.08;2.00;;;;;;;;;;4192374;34;20466;-59
2021/11/23 10:27:35;;;;;;;3.55;2.22;;;;;;;;;;4204190;34;20435;-60
2021/11/23 10:30:02;;;;;;;3.08;2.37;;;;;;;;;;4202569;34;20117;-60
2021/11/23 10:32:50;;;;;;;7.53;2.50;;;;;;;;;;4190412;34;20126;-59
2021/11/23 10:35:21;;;;;;;3.20;2.30;;;;;;;;;;4203998;34;20122;-60
2021/11/23 10:37:47;;;;;;;3.80;2.08;;;;;;;;;;4204209;34;20086;-60
2021/11/23 10:40:23;;;;;;;3.40;2.28;;;;;;;;;;4204977;34;20509;-60
2021/11/23 10:42:52;;;;;;;2.15;1.80;;;;;;;;;;4203738;34;20121;-60
2021/11/23 10:45:19;;;;;;;2.22;1.75;;;;;;;;;;4205272;34;20205;-60
2021/11/23 10:47:46;;;;;;;4.75;2.40;;;;;;;;;;4203733;34;20106;-59
2021/11/23 10:50:14;;;;;;;4.72;2.37;;;;;;;;;;4205408;34;20113;-60
2021/11/23 10:52:46;;;;;;;4.07;2.30;;;;;;;;;;4205235;34;20122;-61
2021/11/23 10:55:17;;;;;;;3.40;2.42;;;;;;;;;;4204928;34;20197;-60
2021/11/23 10:57:44;;;;;;;5.80;2.15;;;;;;;;;;4205122;34;20105;-60
2021/11/23 11:00:12;;;;;;;6.97;2.47;;;;;;;;;;4205310;34;20093;-60
2021/11/23 11:02:39;;;;;;;2.85;2.25;;;;;;;;;;4205033;34;20121;-60
2021/11/23 11:05:09;;;;;;;2.25;2.05;;;;;;;;;;4205100;34;20613;-59
2021/11/23 11:07:36;;;;;;;4.45;1.90;;;;;;;;;;4204376;34;20124;-59
2021/11/23 11:10:04;;;;;;;2.70;2.10;;;;;;;;;;4203671;34;20117;-59
2021/11/23 11:12:30;;;;;;;4.00;2.20;;;;;;;;;;4204953;34;20113;-59
2021/11/23 11:14:58;;;;;;;3.20;2.20;;;;;;;;;;4205044;34;20129;-60
2021/11/23 11:17:25;;;;;;;6.65;2.00;;;;;;;;;;4205015;34;20500;-59
2021/11/23 11:19:53;;;;;;;6.70;2.00;;;;;;;;;;4203764;34;20502;-59
2021/11/23 11:22:21;;;;;;;3.87;2.30;;;;;;;;;;4204988;34;20136;-60
2021/11/23 11:27:32;;;;;;;4.62;2.62;;;;;;;;;;4205008;34;20149;-60
2021/11/23 11:30:42;;;;;;;5.43;2.70;;;;;;;;;;4204865;34;20125;-59
2021/11/23 11:33:07;;;;;;;10.23;3.67;;;;;;;;;;4215163;34;20223;-59
2021/11/23 11:35:38;;;;;;;7.20;3.28;;;;;;;;;;4204957;34;20118;-59
2021/11/23 11:38:06;;;;;;;9.77;3.17;;;;;;;;;;4205113;34;20110;-60
2021/11/23 11:40:35;;;;;;;9.07;3.60;;;;;;;;;;4204860;34;20125;-60
2021/11/23 11:43:05;;;;;;;8.88;3.20;;;;;;;;;;4204913;34;20159;-60
2021/11/23 11:45:43;;;;;;;8.88;3.37;;;;;;;;;;4204766;34;20090;-59
2021/11/23 11:48:31;;;;;;;15.80;4.30;;;;;;;;;;4203000;34;20129;-59
2021/11/23 11:50:57;;;;;;;8.73;3.33;;;;;;;;;;4202265;34;20200;-60
2021/11/23 11:53:23;;;;;;;4.78;3.22;;;;;;;;;;4202378;34;20545;-59
2021/11/23 11:55:50;;;;;;;5.43;3.12;;;;;;;;;;4203350;34;20106;-59
2021/11/23 11:58:41;;;;;;;4.10;2.70;;;;;;;;;;4203618;34;20649;-61
2021/11/23 12:01:28;;;;;;;7.37;3.10;;;;;;;;;;4203444;34;20121;-59
2021/11/23 12:04:15;;;;;;;5.65;3.08;;;;;;;;;;4203416;34;20653;-59
2021/11/23 12:06:53;;;;;;;5.93;3.40;;;;;;;;;;4203360;34;20117;-61
2021/11/23 12:09:31;;;;;;;15.80;3.45;;;;;;;;;;4203359;34;20184;-61
2021/11/23 12:12:09;;;;;;;6.03;3.50;;;;;;;;;;4204234;34;20111;-61
2021/11/23 12:14:50;;;;;;;17.65;4.12;;;;;;;;;;4201942;34;20142;-60
2021/11/23 12:17:26;;;;;;;15.82;5.15;;;;;;;;;;4204524;34;20109;-61
2021/11/23 12:20:12;;;;;;;9.00;4.53;;;;;;;;;;4191183;34;20257;-60
2021/11/23 12:22:43;;;;;;;17.55;4.37;;;;;;;;;;4191736;34;20105;-59
2021/11/23 12:25:18;;;;;;;10.95;3.90;;;;;;;;;;4204167;34;20201;-58
2021/11/23 12:27:47;;;;;;;13.80;4.37;;;;;;;;;;4204185;34;20137;-59
2021/11/23 12:30:18;;;;;;;9.32;3.92;;;;;;;;;;4204125;34;20192;-59
2021/11/23 12:32:45;;;;;;;4.95;3.22;;;;;;;;;;4202927;34;20141;-59
2021/11/23 12:35:15;;;;;;;7.25;4.55;;;;;;;;;;4203818;34;20086;-59
2021/11/23 12:37:47;;;;;;;15.02;4.47;;;;;;;;;;4204106;34;20101;-59
2021/11/23 12:40:23;;;;;;;6.95;4.18;;;;;;;;;;4204203;34;20457;-59
2021/11/23 12:42:54;;;;;;;18.90;4.72;;;;;;;;;;4204184;34;20301;-60
2021/11/23 12:45:26;;;;;;;17.42;4.68;;;;;;;;;;4204153;34;20209;-59
2021/11/23 12:47:52;;;;;;;12.57;4.75;;;;;;;;;;4203733;34;20109;-60
2021/11/23 12:50:18;;;;;;;14.87;5.30;;;;;;;;;;4203847;34;20125;-59
2021/11/23 12:52:45;;;;;;;14.20;5.43;;;;;;;;;;4203336;34;20165;-60
2021/11/23 12:55:15;;;;;;;14.20;4.53;;;;;;;;;;4204450;34;20202;-59
2021/11/23 12:57:51;;;;;;;11.98;4.97;;;;;;;;;;4204256;34;20146;-60
2021/11/23 13:00:19;;;;;;;29.60;7.00;;;;;;;;;;4204306;34;20180;-59
2021/11/23 13:02:56;;;;;;;19.87;5.82;;;;;;;;;;4204381;34;20435;-60
2021/11/23 13:05:28;;;;;;;24.60;6.53;;;;;;;;;;4204307;34;20588;-60
2021/11/23 13:08:09;;;;;;;18.83;6.30;;;;;;;;;;4202647;34;20112;-59
2021/11/23 13:10:41;;;;;;;14.38;5.80;;;;;;;;;;4203898;34;20126;-60
2021/11/23 13:13:10;;;;;;;16.15;5.97;;;;;;;;;;4204201;34;20116;-60
2021/11/23 13:15:41;;;;;;;19.92;5.75;;;;;;;;;;4204041;34;20208;-58
2021/11/23 13:18:27;;;;;;;16.15;5.57;;;;;;;;;;4201241;34;20214;-60
2021/11/23 13:21:05;;;;;;;14.38;7.70;;;;;;;;;;4203765;34;20205;-60
2021/11/23 13:23:38;;;;;;;18.85;6.93;;;;;;;;;;4203497;34;20154;-59
2021/11/23 13:26:14;;;;;;;20.30;6.62;;;;;;;;;;4203749;34;20089;-59
2021/11/23 13:28:53;;;;;;;15.63;7.20;;;;;;;;;;4179428;34;20105;-59
2021/11/23 13:31:22;;;;;;;25.17;7.68;;;;;;;;;;4205217;34;20122;-59
2021/11/23 13:33:53;;;;;;;30.62;7.90;;;;;;;;;;4205620;34;20105;-60
2021/11/23 13:36:46;;;;;;;24.02;7.95;;;;;;;;;;4205884;34;20304;-59
2021/11/23 13:39:14;;;;;;;24.23;7.45;;;;;;;;;;4203336;34;20101;-58
2021/11/23 13:41:40;;;;;;;14.52;6.20;;;;;;;;;;4205801;34;20133;-62
2021/11/23 13:44:09;;;;;;;19.05;7.05;;;;;;;;;;4205787;34;20132;-59
2021/11/23 13:46:41;;;;;;;29.20;8.57;;;;;;;;;;4205867;34;20105;-60
2021/11/23 13:49:13;;;;;;;17.67;5.85;;;;;;;;;;4206081;34;20105;-60
2021/11/23 13:51:39;;;;;;;22.98;6.28;;;;;;;;;;4205897;34;20523;-60
2021/11/23 13:54:11;;;;;;;16.58;6.05;;;;;;;;;;4192843;34;20117;-60
2021/11/23 13:56:52;;;;;;;31.70;7.68;;;;;;;;;;4205396;34;20124;-61
2021/11/23 13:59:20;;;;;;;23.87;6.55;;;;;;;;;;4203296;34;20102;-60
2021/11/23 14:01:50;;;;;;;24.33;6.62;;;;;;;;;;4204960;34;20098;-60
2021/11/23 14:04:21;;;;;;;26.45;6.47;;;;;;;;;;4205550;34;20244;-60
2021/11/23 14:07:02;;;;;;;13.35;5.32;;;;;;;;;;4205572;34;20124;-60
2021/11/23 14:09:44;;;;;;;17.90;5.32;;;;;;;;;;4205374;34;20217;-60
2021/11/23 14:12:10;;;;;;;27.48;6.50;;;;;;;;;;4205460;34;20098;-61
2021/11/23 14:15:15;;;;;;;21.52;6.57;;;;;;;;;;4205516;34;20767;-60
2021/11/23 14:18:07;;;;;;;30.85;6.85;;;;;;;;;;4201117;34;20185;-61
2021/11/23 14:20:46;;;;;;;25.62;6.03;;;;;;;;;;4215090;34;20130;-61
2021/11/23 14:23:32;;;;;;;23.62;6.05;;;;;;;;;;4205701;34;20117;-60
2021/11/23 14:26:04;;;;;;;22.25;5.65;;;;;;;;;;4205190;34;20098;-60
2021/11/23 14:28:32;;;;;;;24.30;5.68;;;;;;;;;;4205468;34;20086;-59
2021/11/23 14:30:59;;;;;;;13.35;5.57;;;;;;;;;;4204917;34;20193;-59
2021/11/23 14:33:25;;;;;;;11.65;5.18;;;;;;;;;;4203957;34;20217;-59
2021/11/23 14:35:56;;;;;;;12.13;5.28;;;;;;;;;;4205184;34;20185;-59
2021/11/23 14:38:22;;;;;;;11.25;5.53;;;;;;;;;;4204211;34;20121;-60
2021/11/23 14:40:48;;;;;;;9.05;4.72;;;;;;;;;;4204936;34;20108;-60
2021/11/23 14:43:15;;;;;;;9.25;4.80;;;;;;;;;;4203716;34;20116;-59
2021/11/23 14:45:41;;;;;;;6.80;3.80;;;;;;;;;;4205035;34;20437;-61
2021/11/23 14:48:07;;;;;;;8.02;4.37;;;;;;;;;;4205264;34;20506;-60
2021/11/23 14:50:34;;;;;;;14.93;4.30;;;;;;;;;;4205076;34;20093;-60
2021/11/23 14:53:01;;;;;;;8.00;4.53;;;;;;;;;;4203692;34;20209;-59
2021/11/23 14:55:28;;;;;;;12.25;4.18;;;;;;;;;;4204961;34;20531;-60
2021/11/23 14:57:56;;;;;;;4.78;3.60;;;;;;;;;;4192225;34;20590;-60
2021/11/23 15:00:22;;;;;;;6.25;3.20;;;;;;;;;;4204082;34;20137;-60
2021/11/23 15:02:49;;;;;;;6.93;3.40;;;;;;;;;;4205107;34;20134;-60
2021/11/23 15:05:16;;;;;;;4.57;3.15;;;;;;;;;;4205326;34;20609;-60
2021/11/23 15:07:42;;;;;;;8.43;3.40;;;;;;;;;;4205240;34;20731;-60
2021/11/23 15:10:09;;;;;;;7.62;3.78;;;;;;;;;;4205094;34;20530;-61